Time;durP1;ratioP1;P1;durP2;ratioP2;P2;SDS_P1;SDS_P2;PMS_P1;PMS_P2;Temp;Humidity;BMP_temperature;BMP_pressure;BME280_temperature;BME280_humidity;BME280_pressure;Samples;Min_cycle;Max_cycle;Signal;HPM_P1;HPM_P2
2022/06/17 00:02:00;;;;;;;2.53;2.33;;;;;;;;;;6278271;22;20180;-81
2022/06/17 00:04:30;;;;;;;2.30;2.10;;;;;;;;;;6277874;22;20196;-81
2022/06/17 00:06:58;;;;;;;2.38;2.17;;;;;;;;;;6277245;22;20176;-81
2022/06/17 00:09:29;;;;;;;2.30;2.00;;;;;;;;;;6278085;22;20175;-81
2022/06/17 00:11:56;;;;;;;2.03;1.92;;;;;;;;;;6277298;22;20243;-81
2022/06/17 00:14:25;;;;;;;2.38;2.17;;;;;;;;;;6277511;22;20223;-82
2022/06/17 00:16:54;;;;;;;2.30;2.10;;;;;;;;;;6277500;22;20526;-81
2022/06/17 00:19:21;;;;;;;2.75;2.10;;;;;;;;;;6277423;22;20168;-81
2022/06/17 00:21:50;;;;;;;2.10;1.92;;;;;;;;;;6277881;22;20636;-81
2022/06/17 00:24:18;;;;;;;2.40;2.20;;;;;;;;;;6277368;22;20698;-82
2022/06/17 00:26:47;;;;;;;2.17;1.98;;;;;;;;;;6277460;22;20167;-81
2022/06/17 00:29:16;;;;;;;2.10;2.00;;;;;;;;;;6277537;22;20179;-81
2022/06/17 00:31:43;;;;;;;2.30;2.10;;;;;;;;;;6277773;22;20211;-81
2022/06/17 00:34:13;;;;;;;2.35;2.15;;;;;;;;;;6277537;22;20191;-81
2022/06/17 00:36:44;;;;;;;2.10;1.92;;;;;;;;;;6277118;22;20187;-81
2022/06/17 00:39:13;;;;;;;2.15;2.00;;;;;;;;;;6277547;22;20204;-81
2022/06/17 00:41:41;;;;;;;1.95;1.85;;;;;;;;;;6277693;22;20172;-81
2022/06/17 00:44:15;;;;;;;2.08;1.98;;;;;;;;;;6276936;22;20212;-81
2022/06/17 00:46:44;;;;;;;1.90;1.80;;;;;;;;;;6277221;22;20187;-81
2022/06/17 00:49:14;;;;;;;1.98;1.88;;;;;;;;;;6277290;22;20175;-81
2022/06/17 00:51:44;;;;;;;2.20;2.00;;;;;;;;;;6277015;22;20298;-81
2022/06/17 00:54:16;;;;;;;2.00;1.85;;;;;;;;;;6275755;22;20567;-81
2022/06/17 00:56:43;;;;;;;2.30;2.20;;;;;;;;;;6276629;22;20211;-81
2022/06/17 00:59:13;;;;;;;2.05;1.95;;;;;;;;;;6276993;22;20172;-81
2022/06/17 01:01:44;;;;;;;2.20;2.00;;;;;;;;;;6277115;22;20247;-81
2022/06/17 01:04:12;;;;;;;2.30;2.10;;;;;;;;;;6277282;22;20191;-81
2022/06/17 01:06:43;;;;;;;2.20;2.10;;;;;;;;;;6277081;22;20168;-81
2022/06/17 01:11:58;;;;;;;1.90;1.80;;;;;;;;;;6277260;22;20206;-81
2022/06/17 01:14:28;;;;;;;2.10;2.00;;;;;;;;;;6276745;22;20195;-81
2022/06/17 01:16:58;;;;;;;1.92;1.80;;;;;;;;;;6276877;22;20215;-81
2022/06/17 01:19:29;;;;;;;1.90;1.80;;;;;;;;;;6277130;22;20172;-81
2022/06/17 01:22:00;;;;;;;2.10;2.00;;;;;;;;;;6276989;22;20203;-81
2022/06/17 01:24:29;;;;;;;2.20;2.00;;;;;;;;;;6277022;22;20659;-81
2022/06/17 01:26:56;;;;;;;2.35;2.13;;;;;;;;;;6276077;22;20624;-81
2022/06/17 01:29:23;;;;;;;2.13;2.03;;;;;;;;;;6277153;22;20185;-81
2022/06/17 01:31:53;;;;;;;1.90;1.80;;;;;;;;;;6277301;22;20172;-81
2022/06/17 01:34:21;;;;;;;2.10;1.90;;;;;;;;;;6276923;22;20208;-84
2022/06/17 01:36:48;;;;;;;2.30;2.10;;;;;;;;;;6276188;22;20192;-84
2022/06/17 01:39:17;;;;;;;1.80;1.70;;;;;;;;;;6275890;22;20172;-82
2022/06/17 01:41:47;;;;;;;2.00;1.90;;;;;;;;;;6276510;22;20168;-83
2022/06/17 01:44:19;;;;;;;1.80;1.70;;;;;;;;;;6276239;22;20192;-82
2022/06/17 01:46:47;;;;;;;1.75;1.65;;;;;;;;;;6276070;22;20221;-82
2022/06/17 01:49:17;;;;;;;1.83;1.73;;;;;;;;;;6276688;22;20176;-82
2022/06/17 01:51:46;;;;;;;1.83;1.73;;;;;;;;;;6276821;22;20179;-82
2022/06/17 01:54:15;;;;;;;2.22;2.08;;;;;;;;;;6275581;22;20267;-82
2022/06/17 01:56:42;;;;;;;1.75;1.65;;;;;;;;;;6275769;22;20184;-82
2022/06/17 01:59:14;;;;;;;1.83;1.65;;;;;;;;;;6276172;22;20178;-82
2022/06/17 02:01:42;;;;;;;1.85;1.65;;;;;;;;;;6275717;22;20188;-83
2022/06/17 02:04:11;;;;;;;1.58;1.48;;;;;;;;;;6274952;22;20191;-82
2022/06/17 02:06:43;;;;;;;2.30;2.10;;;;;;;;;;6275051;22;20632;-82
2022/06/17 02:09:11;;;;;;;2.08;1.90;;;;;;;;;;6275211;22;20167;-82
2022/06/17 02:11:38;;;;;;;1.90;1.80;;;;;;;;;;6275812;22;20171;-82
2022/06/17 02:14:08;;;;;;;1.80;1.70;;;;;;;;;;6279115;22;20220;-84
2022/06/17 02:16:37;;;;;;;1.90;1.80;;;;;;;;;;6276521;22;20272;-87
2022/06/17 02:19:05;;;;;;;1.70;1.60;;;;;;;;;;6275504;22;20191;-87
2022/06/17 02:21:36;;;;;;;1.88;1.67;;;;;;;;;;6276379;22;20191;-84
2022/06/17 02:24:04;;;;;;;2.00;1.90;;;;;;;;;;6276444;22;20191;-87
2022/06/17 02:26:33;;;;;;;2.50;1.80;;;;;;;;;;6276197;22;20195;-87
2022/06/17 02:29:00;;;;;;;1.85;1.75;;;;;;;;;;6276579;22;20179;-86
2022/06/17 02:31:30;;;;;;;1.70;1.60;;;;;;;;;;6276544;22;20258;-86
2022/06/17 02:33:59;;;;;;;1.90;1.80;;;;;;;;;;6276558;22;20200;-87
2022/06/17 02:36:29;;;;;;;1.90;1.80;;;;;;;;;;6276165;22;20188;-87
2022/06/17 02:38:58;;;;;;;1.80;1.70;;;;;;;;;;6276576;22;20221;-86
2022/06/17 02:41:25;;;;;;;2.00;1.80;;;;;;;;;;6276652;22;20225;-86
2022/06/17 02:44:00;;;;;;;1.77;1.67;;;;;;;;;;6276305;22;20199;-86
2022/06/17 02:46:29;;;;;;;2.00;1.80;;;;;;;;;;6276702;22;20194;-86
2022/06/17 02:48:59;;;;;;;1.77;1.67;;;;;;;;;;6276491;22;20239;-87
2022/06/17 02:51:29;;;;;;;1.98;1.80;;;;;;;;;;6276616;22;20171;-86
2022/06/17 02:53:57;;;;;;;1.80;1.70;;;;;;;;;;6276685;22;20241;-86
2022/06/17 02:56:26;;;;;;;2.03;1.80;;;;;;;;;;6276843;22;20222;-86
2022/06/17 02:59:03;;;;;;;1.80;1.70;;;;;;;;;;6276278;22;20175;-87
2022/06/17 03:01:32;;;;;;;1.95;1.85;;;;;;;;;;6277082;22;20190;-86
2022/06/17 03:04:02;;;;;;;2.83;1.92;;;;;;;;;;6277707;22;20211;-87
2022/06/17 03:06:33;;;;;;;1.52;1.42;;;;;;;;;;6276538;22;20251;-87
2022/06/17 03:09:01;;;;;;;2.13;1.85;;;;;;;;;;6276254;22;20178;-85
2022/06/17 03:11:28;;;;;;;1.60;1.50;;;;;;;;;;6276625;22;20230;-87
2022/06/17 03:13:57;;;;;;;2.00;1.90;;;;;;;;;;6275684;22;20263;-84
2022/06/17 03:16:25;;;;;;;2.35;1.90;;;;;;;;;;6275116;22;20188;-87
2022/06/17 03:18:53;;;;;;;1.67;1.58;;;;;;;;;;6275702;22;20203;-87
2022/06/17 03:21:24;;;;;;;1.77;1.67;;;;;;;;;;6275614;22;20176;-87
2022/06/17 03:23:55;;;;;;;1.77;1.67;;;;;;;;;;6275596;22;20192;-87
2022/06/17 03:26:26;;;;;;;2.20;2.00;;;;;;;;;;6275489;22;20156;-85
2022/06/17 03:28:53;;;;;;;1.85;1.75;;;;;;;;;;6275709;22;20651;-86
2022/06/17 03:31:24;;;;;;;2.00;1.90;;;;;;;;;;6276580;22;20172;-87
2022/06/17 03:33:53;;;;;;;2.00;1.83;;;;;;;;;;6276904;22;20209;-84
2022/06/17 03:36:25;;;;;;;1.70;1.60;;;;;;;;;;6275366;22;20262;-85
2022/06/17 03:38:55;;;;;;;1.73;1.63;;;;;;;;;;6276317;22;20164;-87
2022/06/17 03:41:25;;;;;;;1.70;1.60;;;;;;;;;;6276717;22;20249;-86
2022/06/17 03:43:55;;;;;;;1.73;1.63;;;;;;;;;;6276349;22;20198;-87
2022/06/17 03:46:24;;;;;;;2.08;1.65;;;;;;;;;;6275865;22;20164;-87
2022/06/17 03:48:54;;;;;;;1.85;1.75;;;;;;;;;;6275552;22;20191;-87
2022/06/17 03:51:25;;;;;;;1.83;1.50;;;;;;;;;;6275020;22;20261;-87
2022/06/17 03:53:52;;;;;;;1.80;1.70;;;;;;;;;;6275110;22;20196;-88
2022/06/17 03:56:22;;;;;;;1.98;1.80;;;;;;;;;;6274419;22;20248;-87
2022/06/17 03:58:50;;;;;;;1.80;1.70;;;;;;;;;;6273891;22;20202;-87
2022/06/17 04:01:18;;;;;;;1.80;1.70;;;;;;;;;;6274087;22;20171;-87
2022/06/17 04:03:48;;;;;;;1.80;1.70;;;;;;;;;;6275470;22;20196;-85
2022/06/17 04:06:17;;;;;;;1.90;1.80;;;;;;;;;;6274998;22;20624;-86
2022/06/17 04:08:59;;;;;;;1.80;1.70;;;;;;;;;;6274608;22;20172;-86
2022/06/17 04:11:27;;;;;;;1.63;1.52;;;;;;;;;;6275324;22;20167;-87
2022/06/17 04:13:56;;;;;;;2.00;1.90;;;;;;;;;;6275473;22;20200;-87
2022/06/17 04:16:27;;;;;;;1.73;1.63;;;;;;;;;;6274927;22;20215;-85
2022/06/17 04:18:54;;;;;;;1.80;1.70;;;;;;;;;;6275990;22;20198;-87
2022/06/17 04:21:21;;;;;;;1.60;1.50;;;;;;;;;;6275169;22;20652;-85
2022/06/17 04:23:48;;;;;;;1.85;1.75;;;;;;;;;;6275874;22;20199;-87
2022/06/17 04:26:19;;;;;;;1.90;1.80;;;;;;;;;;6275335;22;20192;-84
2022/06/17 04:28:48;;;;;;;2.22;1.90;;;;;;;;;;6276689;22;20164;-87
2022/06/17 04:31:17;;;;;;;1.90;1.80;;;;;;;;;;6277980;22;20222;-87
2022/06/17 04:33:47;;;;;;;1.83;1.73;;;;;;;;;;6276919;22;20202;-87
2022/06/17 04:36:16;;;;;;;1.95;1.85;;;;;;;;;;6276828;22;20215;-86
2022/06/17 04:38:48;;;;;;;2.25;1.92;;;;;;;;;;6276893;22;20176;-85
2022/06/17 04:41:16;;;;;;;1.75;1.65;;;;;;;;;;6278140;22;20178;-86
2022/06/17 04:43:47;;;;;;;1.92;1.80;;;;;;;;;;6277112;22;20226;-87
2022/06/17 04:46:16;;;;;;;1.83;1.73;;;;;;;;;;6277668;22;20157;-87
2022/06/17 04:48:43;;;;;;;2.88;2.00;;;;;;;;;;6275777;22;20190;-87
2022/06/17 04:51:11;;;;;;;1.90;1.80;;;;;;;;;;6275486;22;20172;-89
2022/06/17 04:53:42;;;;;;;2.00;1.90;;;;;;;;;;6276081;22;20226;-88
2022/06/17 04:56:12;;;;;;;3.67;1.90;;;;;;;;;;6276462;22;20188;-88
2022/06/17 04:58:40;;;;;;;2.80;2.03;;;;;;;;;;6276081;22;20168;-86
2022/06/17 05:01:16;;;;;;;6.97;2.50;;;;;;;;;;6278700;22;20183;-85
2022/06/17 05:03:43;;;;;;;9.10;2.90;;;;;;;;;;6277641;22;20196;-87
2022/06/17 05:06:11;;;;;;;5.78;2.55;;;;;;;;;;6274245;22;20172;-87
2022/06/17 05:08:43;;;;;;;5.57;2.65;;;;;;;;;;6275883;22;20228;-89
2022/06/17 05:11:16;;;;;;;6.35;2.97;;;;;;;;;;6276869;22;20168;-87
2022/06/17 05:13:51;;;;;;;7.57;3.03;;;;;;;;;;6276335;22;20196;-87
2022/06/17 05:16:22;;;;;;;4.05;2.33;;;;;;;;;;6276132;22;20679;-88
2022/06/17 05:18:49;;;;;;;8.30;2.92;;;;;;;;;;6276061;22;20176;-87
2022/06/17 05:21:19;;;;;;;5.50;2.45;;;;;;;;;;6275795;22;20251;-89
2022/06/17 05:23:46;;;;;;;3.78;2.40;;;;;;;;;;6275031;22;20297;-88
2022/06/17 05:26:14;;;;;;;4.05;2.25;;;;;;;;;;6275619;22;20172;-89
2022/06/17 05:28:41;;;;;;;5.88;3.10;;;;;;;;;;6276842;22;20172;-87
2022/06/17 05:31:08;;;;;;;2.67;2.20;;;;;;;;;;6277062;22;20191;-87
2022/06/17 05:33:37;;;;;;;3.63;2.55;;;;;;;;;;6276419;22;20215;-87
2022/06/17 05:36:04;;;;;;;5.05;2.22;;;;;;;;;;6276175;22;20202;-84
2022/06/17 05:38:32;;;;;;;2.88;2.28;;;;;;;;;;6276654;22;20233;-87
2022/06/17 05:40:59;;;;;;;2.55;2.00;;;;;;;;;;6276537;22;20182;-87
2022/06/17 05:43:26;;;;;;;2.67;2.08;;;;;;;;;;6274632;22;20222;-87
2022/06/17 05:45:54;;;;;;;3.63;2.00;;;;;;;;;;6275245;22;20172;-85
2022/06/17 05:48:21;;;;;;;4.07;1.98;;;;;;;;;;6276094;22;20187;-88
2022/06/17 05:50:50;;;;;;;4.38;2.13;;;;;;;;;;6275019;22;20180;-87
2022/06/17 05:53:17;;;;;;;2.55;1.75;;;;;;;;;;6275577;22;20192;-88
2022/06/17 05:55:44;;;;;;;3.00;1.95;;;;;;;;;;6276522;22;20172;-86
2022/06/17 05:58:12;;;;;;;2.53;2.30;;;;;;;;;;6277050;22;20202;-85
2022/06/17 06:00:39;;;;;;;4.50;2.10;;;;;;;;;;6276377;22;20171;-87
2022/06/17 06:03:07;;;;;;;2.58;1.80;;;;;;;;;;6276639;22;20299;-85
2022/06/17 06:05:35;;;;;;;2.30;2.00;;;;;;;;;;6278278;22;20183;-85
2022/06/17 06:08:04;;;;;;;2.25;1.80;;;;;;;;;;6277287;22;20225;-87
2022/06/17 06:10:31;;;;;;;2.95;1.80;;;;;;;;;;6275119;22;20171;-85
2022/06/17 06:13:01;;;;;;;3.88;2.20;;;;;;;;;;6276636;22;20182;-87
2022/06/17 06:15:31;;;;;;;3.47;2.20;;;;;;;;;;6276675;22;20628;-87
2022/06/17 06:18:05;;;;;;;1.88;1.70;;;;;;;;;;6273494;22;20188;-87
2022/06/17 06:20:32;;;;;;;2.65;1.98;;;;;;;;;;6276422;22;20170;-87
2022/06/17 06:23:00;;;;;;;2.90;2.20;;;;;;;;;;6276715;22;20172;-87
2022/06/17 06:25:28;;;;;;;2.65;1.80;;;;;;;;;;6276984;22;20172;-84
2022/06/17 06:27:56;;;;;;;2.72;2.00;;;;;;;;;;6278770;22;20168;-87
2022/06/17 06:30:24;;;;;;;2.20;1.90;;;;;;;;;;6277667;22;20175;-87
2022/06/17 06:32:53;;;;;;;3.70;2.10;;;;;;;;;;6277183;22;20172;-85
2022/06/17 06:35:21;;;;;;;1.98;1.88;;;;;;;;;;6275698;22;20172;-86
2022/06/17 06:37:54;;;;;;;2.08;1.77;;;;;;;;;;6275660;22;20194;-87
2022/06/17 06:40:21;;;;;;;3.10;1.90;;;;;;;;;;6276454;22;20175;-87
2022/06/17 06:42:51;;;;;;;2.75;1.80;;;;;;;;;;6276143;22;20180;-85
2022/06/17 06:45:20;;;;;;;5.78;2.00;;;;;;;;;;6276155;22;20172;-87
2022/06/17 06:47:47;;;;;;;3.15;1.90;;;;;;;;;;6275664;22;20225;-87
2022/06/17 06:50:18;;;;;;;2.15;1.95;;;;;;;;;;6276771;22;20171;-87
2022/06/17 06:52:46;;;;;;;1.90;1.63;;;;;;;;;;6276448;22;20639;-87
2022/06/17 06:55:14;;;;;;;3.30;1.80;;;;;;;;;;6276396;22;20195;-86
2022/06/17 06:57:46;;;;;;;2.40;1.80;;;;;;;;;;6277409;22;20192;-84
2022/06/17 07:00:17;;;;;;;2.85;1.85;;;;;;;;;;6277869;22;20639;-87
2022/06/17 07:02:44;;;;;;;1.85;1.70;;;;;;;;;;6276103;22;20201;-86
2022/06/17 07:05:15;;;;;;;2.17;1.92;;;;;;;;;;6275338;22;20176;-84
2022/06/17 07:07:45;;;;;;;2.28;1.85;;;;;;;;;;6274740;22;20168;-86
2022/06/17 07:10:14;;;;;;;2.25;2.05;;;;;;;;;;6275079;22;20167;-86
2022/06/17 07:12:43;;;;;;;2.40;1.85;;;;;;;;;;6275755;22;20237;-87
2022/06/17 07:15:11;;;;;;;3.25;1.70;;;;;;;;;;6275118;22;20208;-86
2022/06/17 07:17:40;;;;;;;2.47;2.08;;;;;;;;;;6276497;22;20218;-87
2022/06/17 07:20:08;;;;;;;4.03;2.10;;;;;;;;;;6276632;22;20194;-87
2022/06/17 07:22:38;;;;;;;2.30;1.92;;;;;;;;;;6276773;22;20182;-86
2022/06/17 07:25:06;;;;;;;2.88;1.85;;;;;;;;;;6278068;22;20192;-87
2022/06/17 07:27:33;;;;;;;3.40;1.90;;;;;;;;;;6277167;22;20168;-86
2022/06/17 07:30:00;;;;;;;2.00;1.90;;;;;;;;;;6275506;22;20230;-87
2022/06/17 07:32:28;;;;;;;2.13;1.95;;;;;;;;;;6276365;22;20175;-86
2022/06/17 07:34:56;;;;;;;2.72;2.10;;;;;;;;;;6276026;22;20709;-86
2022/06/17 07:40:12;;;;;;;2.67;2.10;;;;;;;;;;6276071;22;20155;-85
2022/06/17 07:42:39;;;;;;;2.00;1.90;;;;;;;;;;6277216;22;20176;-88
2022/06/17 07:45:08;;;;;;;2.08;1.92;;;;;;;;;;6275750;22;20206;-85
2022/06/17 07:47:36;;;;;;;2.00;1.80;;;;;;;;;;6278556;22;20171;-85
2022/06/17 07:50:05;;;;;;;1.98;1.80;;;;;;;;;;6277076;22;20172;-86
2022/06/17 07:52:32;;;;;;;3.47;2.17;;;;;;;;;;6275880;22;20198;-86
2022/06/17 07:55:02;;;;;;;3.38;2.00;;;;;;;;;;6276424;22;20269;-85
2022/06/17 07:57:29;;;;;;;2.42;1.75;;;;;;;;;;6275700;22;20187;-87
2022/06/17 07:59:57;;;;;;;3.00;2.08;;;;;;;;;;6277626;22;20183;-87
2022/06/17 08:02:25;;;;;;;2.22;2.03;;;;;;;;;;6279116;22;20171;-88
2022/06/17 08:04:52;;;;;;;2.03;1.83;;;;;;;;;;6279337;22;20199;-87
2022/06/17 08:07:21;;;;;;;2.20;2.00;;;;;;;;;;6280004;22;20175;-86
2022/06/17 08:09:48;;;;;;;2.00;1.88;;;;;;;;;;6279750;22;20175;-85
2022/06/17 08:12:18;;;;;;;1.88;1.77;;;;;;;;;;6284227;22;20179;-86
2022/06/17 08:14:46;;;;;;;2.22;1.95;;;;;;;;;;6297564;22;20196;-90
2022/06/17 08:17:14;;;;;;;2.35;2.00;;;;;;;;;;6299278;22;20175;-88
2022/06/17 08:19:43;;;;;;;1.80;1.70;;;;;;;;;;6300038;22;20182;-87
2022/06/17 08:22:11;;;;;;;1.88;1.73;;;;;;;;;;6299943;22;20182;-88
2022/06/17 08:24:40;;;;;;;1.90;1.80;;;;;;;;;;6301063;22;20202;-88
2022/06/17 08:27:09;;;;;;;2.10;1.90;;;;;;;;;;6292640;22;20172;-87
2022/06/17 08:29:37;;;;;;;2.08;1.85;;;;;;;;;;6278844;22;20227;-85
2022/06/17 08:34:46;;;;;;;2.10;1.90;;;;;;;;;;6279968;22;20184;-86
2022/06/17 08:37:14;;;;;;;2.45;1.85;;;;;;;;;;6278878;22;20172;-87
2022/06/17 08:39:44;;;;;;;2.20;2.10;;;;;;;;;;6277347;22;20172;-87
2022/06/17 08:42:15;;;;;;;1.98;1.85;;;;;;;;;;6278111;22;20176;-87
2022/06/17 08:44:48;;;;;;;2.00;1.80;;;;;;;;;;6276850;22;20241;-88
2022/06/17 08:47:29;;;;;;;2.42;1.98;;;;;;;;;;6277033;22;20167;-87
2022/06/17 08:50:20;;;;;;;2.20;2.00;;;;;;;;;;6278075;22;20164;-87
2022/06/17 08:53:05;;;;;;;2.55;2.15;;;;;;;;;;6268802;22;20172;-87
2022/06/17 08:55:38;;;;;;;1.90;1.80;;;;;;;;;;6278825;22;20191;-87
2022/06/17 08:58:11;;;;;;;2.97;1.80;;;;;;;;;;6277095;22;20184;-88
2022/06/17 09:00:43;;;;;;;2.10;1.90;;;;;;;;;;6277641;22;20195;-85
2022/06/17 09:03:19;;;;;;;2.10;1.95;;;;;;;;;;6276145;22;20246;-86
2022/06/17 09:05:50;;;;;;;1.98;1.88;;;;;;;;;;6278653;22;20171;-87
2022/06/17 09:08:25;;;;;;;1.90;1.80;;;;;;;;;;6277332;22;20168;-86
2022/06/17 09:11:02;;;;;;;2.22;1.90;;;;;;;;;;6277230;22;20577;-87
2022/06/17 09:13:34;;;;;;;1.85;1.70;;;;;;;;;;6277577;22;20214;-87
2022/06/17 09:16:06;;;;;;;1.90;1.80;;;;;;;;;;6277471;22;20178;-83
2022/06/17 09:18:40;;;;;;;2.05;1.85;;;;;;;;;;6277176;22;20188;-88
2022/06/17 09:21:09;;;;;;;2.53;2.03;;;;;;;;;;6276725;22;20172;-87
2022/06/17 09:23:40;;;;;;;2.45;2.08;;;;;;;;;;6277655;22;20191;-87
2022/06/17 09:26:12;;;;;;;2.00;1.90;;;;;;;;;;6276740;22;20168;-85
2022/06/17 09:28:42;;;;;;;2.03;1.90;;;;;;;;;;6276723;22;20164;-88
2022/06/17 09:31:14;;;;;;;1.85;1.60;;;;;;;;;;6277717;22;20178;-85
2022/06/17 09:33:44;;;;;;;2.45;1.90;;;;;;;;;;6275582;22;20191;-86
2022/06/17 09:36:13;;;;;;;2.13;1.80;;;;;;;;;;6277352;22;20234;-87
2022/06/17 09:38:46;;;;;;;2.40;2.15;;;;;;;;;;6276972;22;20247;-88
2022/06/17 09:41:19;;;;;;;1.95;1.85;;;;;;;;;;6276188;22;20172;-87
2022/06/17 09:43:51;;;;;;;2.15;1.90;;;;;;;;;;6275974;22;20662;-85
2022/06/17 09:46:21;;;;;;;2.25;2.05;;;;;;;;;;6275822;22;20194;-87
2022/06/17 09:48:53;;;;;;;1.67;1.58;;;;;;;;;;6276675;22;20178;-88
2022/06/17 09:51:22;;;;;;;2.75;1.98;;;;;;;;;;6276398;22;20164;-85
2022/06/17 09:53:55;;;;;;;2.30;1.67;;;;;;;;;;6277323;22;20223;-86
2022/06/17 09:56:29;;;;;;;1.85;1.75;;;;;;;;;;6277547;22;20164;-86
2022/06/17 09:59:01;;;;;;;1.90;1.80;;;;;;;;;;6276197;22;20242;-86
2022/06/17 10:01:29;;;;;;;2.47;1.85;;;;;;;;;;6275808;22;20198;-89
2022/06/17 10:03:56;;;;;;;2.08;1.90;;;;;;;;;;6274849;22;20196;-88
2022/06/17 10:06:31;;;;;;;1.95;1.85;;;;;;;;;;6274996;22;20172;-87
2022/06/17 10:09:07;;;;;;;2.20;2.00;;;;;;;;;;6274670;22;20167;-89
2022/06/17 10:11:42;;;;;;;2.25;2.00;;;;;;;;;;6275605;22;20164;-87
2022/06/17 10:14:17;;;;;;;2.00;1.80;;;;;;;;;;6274618;22;20202;-88
2022/06/17 10:19:38;;;;;;;2.30;2.10;;;;;;;;;;6275767;22;20304;-89
2022/06/17 10:22:10;;;;;;;2.03;1.83;;;;;;;;;;6275810;22;20165;-89
2022/06/17 10:24:58;;;;;;;2.00;1.80;;;;;;;;;;6276029;22;20207;-87
2022/06/17 10:27:39;;;;;;;3.60;2.00;;;;;;;;;;6275509;22;20164;-89
2022/06/17 10:30:17;;;;;;;2.00;1.90;;;;;;;;;;6274974;22;20178;-89
2022/06/17 10:32:52;;;;;;;2.20;1.90;;;;;;;;;;6274929;22;20167;-87
2022/06/17 10:35:22;;;;;;;2.13;2.00;;;;;;;;;;6275552;22;20175;-87
2022/06/17 10:37:50;;;;;;;1.85;1.70;;;;;;;;;;6274555;22;20172;-88
2022/06/17 10:40:19;;;;;;;2.38;1.90;;;;;;;;;;6275558;22;20168;-87
2022/06/17 10:42:51;;;;;;;2.03;1.90;;;;;;;;;;6275444;22;20181;-87
2022/06/17 10:45:21;;;;;;;2.17;2.05;;;;;;;;;;6275303;22;20171;-88
2022/06/17 10:47:53;;;;;;;1.88;1.70;;;;;;;;;;6275632;22;20233;-89
2022/06/17 10:50:24;;;;;;;2.08;1.80;;;;;;;;;;6275675;22;20490;-90
2022/06/17 10:52:55;;;;;;;1.90;1.80;;;;;;;;;;6275017;22;20244;-88
2022/06/17 10:55:27;;;;;;;2.17;1.90;;;;;;;;;;6275093;22;20171;-87
2022/06/17 10:58:10;;;;;;;2.70;1.90;;;;;;;;;;6274036;22;20168;-87
2022/06/17 11:00:53;;;;;;;2.10;1.80;;;;;;;;;;6274102;22;20168;-89
2022/06/17 11:03:26;;;;;;;2.20;2.00;;;;;;;;;;6275027;22;20192;-88
2022/06/17 11:05:56;;;;;;;2.00;1.90;;;;;;;;;;6274740;22;20237;-90
2022/06/17 11:08:26;;;;;;;1.92;1.83;;;;;;;;;;6273396;22;20610;-86
2022/06/17 11:10:55;;;;;;;2.10;1.90;;;;;;;;;;6275656;22;20172;-88
2022/06/17 11:16:14;;;;;;;1.90;1.80;;;;;;;;;;6274527;22;20491;-86
2022/06/17 11:18:45;;;;;;;1.95;1.80;;;;;;;;;;6274870;22;20249;-88
2022/06/17 11:21:21;;;;;;;2.00;1.80;;;;;;;;;;6274806;22;20197;-88
2022/06/17 11:23:53;;;;;;;1.70;1.60;;;;;;;;;;6275242;22;20214;-89
2022/06/17 11:26:26;;;;;;;2.88;1.98;;;;;;;;;;6275375;22;20170;-89
2022/06/17 11:28:59;;;;;;;2.30;1.83;;;;;;;;;;6275294;22;20240;-86
2022/06/17 11:31:49;;;;;;;2.13;1.80;;;;;;;;;;6274920;22;20221;-88
2022/06/17 11:34:19;;;;;;;1.80;1.70;;;;;;;;;;6274517;22;20237;-91
2022/06/17 11:37:05;;;;;;;1.70;1.60;;;;;;;;;;6274848;22;20250;-88
2022/06/17 11:39:38;;;;;;;1.83;1.60;;;;;;;;;;6276260;22;20187;-87
2022/06/17 11:42:15;;;;;;;2.55;1.98;;;;;;;;;;6278322;22;20172;-87
2022/06/17 11:47:57;;;;;;;1.60;1.50;;;;;;;;;;6275866;22;20168;-86
2022/06/17 11:50:27;;;;;;;1.90;1.70;;;;;;;;;;6278049;22;20172;-87
2022/06/17 11:53:02;;;;;;;1.90;1.70;;;;;;;;;;6276997;22;20176;-88
2022/06/17 11:55:32;;;;;;;2.63;1.80;;;;;;;;;;6276158;22;20615;-90
2022/06/17 11:57:59;;;;;;;1.90;1.80;;;;;;;;;;6276121;22;20172;-88
2022/06/17 12:00:45;;;;;;;1.90;1.73;;;;;;;;;;6277655;22;20550;-86
2022/06/17 12:03:22;;;;;;;2.35;1.90;;;;;;;;;;6277711;22;20220;-89
2022/06/17 12:06:01;;;;;;;1.98;1.70;;;;;;;;;;6278301;22;20194;-87
2022/06/17 12:08:33;;;;;;;2.53;1.70;;;;;;;;;;6279018;22;20195;-86
2022/06/17 12:11:03;;;;;;;1.90;1.80;;;;;;;;;;6277505;22;20205;-86
2022/06/17 12:13:33;;;;;;;1.60;1.50;;;;;;;;;;6278040;22;20192;-87
2022/06/17 12:16:04;;;;;;;1.70;1.60;;;;;;;;;;6277924;22;20164;-87
2022/06/17 12:18:35;;;;;;;2.15;1.58;;;;;;;;;;6278578;22;20188;-87
2022/06/17 12:21:25;;;;;;;1.63;1.52;;;;;;;;;;6277881;22;20225;-86
2022/06/17 12:23:56;;;;;;;3.63;1.65;;;;;;;;;;6277498;22;20191;-87
2022/06/17 12:26:29;;;;;;;2.47;1.70;;;;;;;;;;6277356;22;20160;-85
2022/06/17 12:29:02;;;;;;;2.13;1.60;;;;;;;;;;6277858;22;20164;-86
2022/06/17 12:31:38;;;;;;;1.92;1.60;;;;;;;;;;6277360;22;20172;-84
2022/06/17 12:34:21;;;;;;;3.15;1.83;;;;;;;;;;6278601;22;20203;-86
2022/06/17 12:36:51;;;;;;;2.38;1.83;;;;;;;;;;6279421;22;20176;-84
2022/06/17 12:39:22;;;;;;;2.35;1.58;;;;;;;;;;6278127;22;20216;-88
2022/06/17 12:41:54;;;;;;;2.05;1.70;;;;;;;;;;6277165;22;20525;-88
2022/06/17 12:44:27;;;;;;;1.63;1.52;;;;;;;;;;6277040;22;20199;-86
2022/06/17 12:46:58;;;;;;;1.60;1.50;;;;;;;;;;6278282;22;20234;-86
2022/06/17 12:55:07;;;;;;;1.90;1.55;;;;;;;;;;6276813;22;20262;-89
2022/06/17 12:57:37;;;;;;;1.90;1.42;;;;;;;;;;6277905;22;20168;-92
2022/06/17 13:00:06;;;;;;;2.13;1.50;;;;;;;;;;6276048;22;20267;-88
2022/06/17 13:02:44;;;;;;;3.55;1.55;;;;;;;;;;6276857;22;20237;-88
2022/06/17 13:05:17;;;;;;;1.50;1.40;;;;;;;;;;6277473;22;20195;-87
2022/06/17 13:07:54;;;;;;;2.67;1.67;;;;;;;;;;6277321;22;20174;-88
2022/06/17 13:10:40;;;;;;;1.88;1.45;;;;;;;;;;6276134;22;20214;-87
2022/06/17 13:13:17;;;;;;;1.60;1.50;;;;;;;;;;6277803;22;20198;-85
2022/06/17 13:15:47;;;;;;;1.85;1.40;;;;;;;;;;6277393;22;20690;-88
2022/06/17 13:18:18;;;;;;;2.58;1.63;;;;;;;;;;6278954;22;20176;-89
2022/06/17 13:20:51;;;;;;;1.67;1.40;;;;;;;;;;6277209;22;20202;-87
2022/06/17 13:23:24;;;;;;;2.97;1.80;;;;;;;;;;6276435;22;20203;-86
2022/06/17 13:25:56;;;;;;;3.08;1.52;;;;;;;;;;6280535;22;20233;-85
2022/06/17 13:28:29;;;;;;;1.67;1.42;;;;;;;;;;6277795;22;20198;-87
2022/06/17 13:31:00;;;;;;;2.33;1.48;;;;;;;;;;6279288;22;20195;-85
2022/06/17 13:33:30;;;;;;;1.67;1.58;;;;;;;;;;6278615;22;20198;-86
2022/06/17 13:36:01;;;;;;;1.58;1.30;;;;;;;;;;6277768;22;20161;-86
2022/06/17 13:38:31;;;;;;;1.80;1.40;;;;;;;;;;6277221;22;20172;-85
2022/06/17 13:41:07;;;;;;;2.10;1.40;;;;;;;;;;6277834;22;20564;-86
2022/06/17 13:43:50;;;;;;;2.25;1.70;;;;;;;;;;6277964;22;20193;-87
2022/06/17 13:46:25;;;;;;;1.90;1.60;;;;;;;;;;6278106;22;20168;-84
2022/06/17 13:49:01;;;;;;;3.33;1.90;;;;;;;;;;6277592;22;20191;-86
2022/06/17 13:51:31;;;;;;;2.10;1.65;;;;;;;;;;6277686;22;20174;-86
2022/06/17 13:54:05;;;;;;;2.80;2.17;;;;;;;;;;6276938;22;20192;-87
2022/06/17 13:56:42;;;;;;;2.85;1.63;;;;;;;;;;6276841;22;20174;-87
2022/06/17 13:59:28;;;;;;;1.58;1.42;;;;;;;;;;6276807;22;20190;-87
2022/06/17 14:02:25;;;;;;;2.47;1.75;;;;;;;;;;6277413;22;20178;-87
2022/06/17 14:05:21;;;;;;;2.58;1.52;;;;;;;;;;6271009;22;20188;-86
2022/06/17 14:07:58;;;;;;;2.88;1.45;;;;;;;;;;6243653;22;20172;-86
2022/06/17 14:10:43;;;;;;;4.68;2.22;;;;;;;;;;6277766;22;20243;-89
2022/06/17 14:13:25;;;;;;;28.15;6.43;;;;;;;;;;6278044;22;20242;-84
2022/06/17 14:15:56;;;;;;;30.35;7.03;;;;;;;;;;6260010;23;20195;-84
2022/06/17 14:18:32;;;;;;;40.08;8.85;;;;;;;;;;6249069;23;20512;-86
2022/06/17 14:21:02;;;;;;;9.00;2.92;;;;;;;;;;6247591;23;20184;-82
2022/06/17 14:23:45;;;;;;;8.95;2.60;;;;;;;;;;6247920;22;20228;-82
2022/06/17 14:26:15;;;;;;;6.82;2.55;;;;;;;;;;6248582;23;20165;-84
2022/06/17 14:29:01;;;;;;;8.75;2.88;;;;;;;;;;6246815;23;20173;-82
2022/06/17 14:31:33;;;;;;;8.65;2.70;;;;;;;;;;6246990;23;20160;-82
2022/06/17 14:34:07;;;;;;;9.90;3.10;;;;;;;;;;6246018;22;20196;-82
2022/06/17 14:37:07;;;;;;;8.07;2.58;;;;;;;;;;6246892;23;20184;-82
2022/06/17 14:39:56;;;;;;;6.95;2.65;;;;;;;;;;6154917;23;20198;-82
2022/06/17 14:42:27;;;;;;;5.93;2.15;;;;;;;;;;6154601;23;20175;-80
2022/06/17 14:45:09;;;;;;;7.63;2.33;;;;;;;;;;6213063;23;20192;-82
2022/06/17 14:47:46;;;;;;;5.32;2.22;;;;;;;;;;6247460;23;20174;-81
2022/06/17 14:50:15;;;;;;;4.53;2.03;;;;;;;;;;6248265;23;20168;-83
2022/06/17 14:52:46;;;;;;;4.38;2.20;;;;;;;;;;6247282;23;20173;-83
2022/06/17 14:55:23;;;;;;;3.45;1.70;;;;;;;;;;6248080;22;20193;-83
2022/06/17 14:58:08;;;;;;;3.80;2.10;;;;;;;;;;6249693;23;20222;-81
2022/06/17 15:00:46;;;;;;;2.40;1.60;;;;;;;;;;6246274;23;20203;-80
2022/06/17 15:03:18;;;;;;;2.78;1.67;;;;;;;;;;6245625;22;20164;-82
2022/06/17 15:05:45;;;;;;;6.15;1.80;;;;;;;;;;6248345;23;20239;-82
2022/06/17 15:08:19;;;;;;;2.67;1.52;;;;;;;;;;6249239;23;20251;-83
2022/06/17 15:11:00;;;;;;;2.38;1.30;;;;;;;;;;6247580;23;20164;-82
2022/06/17 15:16:14;;;;;;;2.10;1.58;;;;;;;;;;6246271;23;20240;-81
2022/06/17 15:18:44;;;;;;;1.80;1.40;;;;;;;;;;6248823;23;20176;-83
2022/06/17 15:21:14;;;;;;;2.05;1.40;;;;;;;;;;6247339;23;20267;-82
2022/06/17 15:23:46;;;;;;;2.88;1.48;;;;;;;;;;6246729;22;20188;-82
2022/06/17 15:26:17;;;;;;;3.22;2.08;;;;;;;;;;6247652;23;20165;-82
2022/06/17 15:28:46;;;;;;;4.32;2.10;;;;;;;;;;6247738;23;20219;-82
2022/06/17 15:31:17;;;;;;;4.72;2.08;;;;;;;;;;6246719;23;20164;-83
2022/06/17 15:33:46;;;;;;;4.50;1.80;;;;;;;;;;6247699;22;20192;-82